sensor_id;sensor_type;location;lat;lon;timestamp;temperature;humidity
38118;DHT22;23928;47.562;7.508;2022-08-11T00:00:12;18.80;99.90
38118;DHT22;23928;47.562;7.508;2022-08-11T00:02:51;18.60;99.90
38118;DHT22;23928;47.562;7.508;2022-08-11T00:05:19;18.50;99.90
38118;DHT22;23928;47.562;7.508;2022-08-11T00:10:20;18.30;99.90
38118;DHT22;23928;47.562;7.508;2022-08-11T00:13:05;18.60;99.90
38118;DHT22;23928;47.562;7.508;2022-08-11T00:15:41;18.30;99.90
38118;DHT22;23928;47.562;7.508;2022-08-11T00:18:08;18.60;99.90
38118;DHT22;23928;47.562;7.508;2022-08-11T00:20:37;18.50;99.90
38118;DHT22;23928;47.562;7.508;2022-08-11T00:23:12;18.30;99.90
38118;DHT22;23928;47.562;7.508;2022-08-11T00:25:46;18.20;99.90
38118;DHT22;23928;47.562;7.508;2022-08-11T00:28:30;18.20;99.90
38118;DHT22;23928;47.562;7.508;2022-08-11T00:30:58;18.20;99.90
38118;DHT22;23928;47.562;7.508;2022-08-11T00:33:38;18.20;99.90
38118;DHT22;23928;47.562;7.508;2022-08-11T00:36:05;18.50;99.90
38118;DHT22;23928;47.562;7.508;2022-08-11T00:38:33;18.80;99.90
38118;DHT22;23928;47.562;7.508;2022-08-11T00:44:31;18.40;99.90
38118;DHT22;23928;47.562;7.508;2022-08-11T00:49:51;17.80;99.90
38118;DHT22;23928;47.562;7.508;2022-08-11T00:58:16;17.40;99.90
38118;DHT22;23928;47.562;7.508;2022-08-11T01:01:08;17.50;99.90
38118;DHT22;23928;47.562;7.508;2022-08-11T01:09:45;17.30;99.90
38118;DHT22;23928;47.562;7.508;2022-08-11T01:17:41;17.40;99.90
38118;DHT22;23928;47.562;7.508;2022-08-11T01:43:39;17.40;99.90
38118;DHT22;23928;47.562;7.508;2022-08-11T01:46:31;17.50;99.90
38118;DHT22;23928;47.562;7.508;2022-08-11T01:49:53;17.20;99.90
38118;DHT22;23928;47.562;7.508;2022-08-11T01:52:20;16.90;99.90
38118;DHT22;23928;47.562;7.508;2022-08-11T01:55:20;16.70;99.90
38118;DHT22;23928;47.562;7.508;2022-08-11T01:57:55;16.80;99.90
38118;DHT22;23928;47.562;7.508;2022-08-11T02:00:27;17.00;99.90
38118;DHT22;23928;47.562;7.508;2022-08-11T02:03:13;17.20;99.90
38118;DHT22;23928;47.562;7.508;2022-08-11T02:06:03;17.00;99.90
38118;DHT22;23928;47.562;7.508;2022-08-11T02:09:06;16.70;99.90
38118;DHT22;23928;47.562;7.508;2022-08-11T02:11:35;16.50;99.90
38118;DHT22;23928;47.562;7.508;2022-08-11T02:14:28;16.20;99.90
38118;DHT22;23928;47.562;7.508;2022-08-11T02:17:20;16.30;99.90
38118;DHT22;23928;47.562;7.508;2022-08-11T02:20:13;16.20;99.90
38118;DHT22;23928;47.562;7.508;2022-08-11T02:23:02;16.10;99.90
38118;DHT22;23928;47.562;7.508;2022-08-11T02:33:41;16.10;99.90
38118;DHT22;23928;47.562;7.508;2022-08-11T02:36:17;16.00;99.90
38118;DHT22;23928;47.562;7.508;2022-08-11T02:39:01;15.90;99.90
38118;DHT22;23928;47.562;7.508;2022-08-11T02:41:44;15.80;99.90
38118;DHT22;23928;47.562;7.508;2022-08-11T02:50:12;16.00;99.90
38118;DHT22;23928;47.562;7.508;2022-08-11T02:55:45;16.10;99.90
38118;DHT22;23928;47.562;7.508;2022-08-11T02:58:48;16.00;99.90
38118;DHT22;23928;47.562;7.508;2022-08-11T03:01:48;15.70;99.90
38118;DHT22;23928;47.562;7.508;2022-08-11T03:04:39;15.70;99.90
38118;DHT22;23928;47.562;7.508;2022-08-11T03:07:22;15.50;99.90
38118;DHT22;23928;47.562;7.508;2022-08-11T03:09:57;15.90;99.90
38118;DHT22;23928;47.562;7.508;2022-08-11T03:12:32;16.10;99.90
38118;DHT22;23928;47.562;7.508;2022-08-11T03:15:23;15.80;99.90
38118;DHT22;23928;47.562;7.508;2022-08-11T03:18:30;15.50;99.90
38118;DHT22;23928;47.562;7.508;2022-08-11T03:21:08;15.50;99.90
38118;DHT22;23928;47.562;7.508;2022-08-11T03:23:52;15.40;99.90
38118;DHT22;23928;47.562;7.508;2022-08-11T03:26:25;15.50;99.90
38118;DHT22;23928;47.562;7.508;2022-08-11T03:31:36;15.30;99.90
38118;DHT22;23928;47.562;7.508;2022-08-11T03:34:17;15.20;99.90
38118;DHT22;23928;47.562;7.508;2022-08-11T03:40:11;15.10;99.90
38118;DHT22;23928;47.562;7.508;2022-08-11T03:42:54;15.40;99.90
38118;DHT22;23928;47.562;7.508;2022-08-11T03:45:35;15.20;99.90
38118;DHT22;23928;47.562;7.508;2022-08-11T04:04:23;15.00;99.90
38118;DHT22;23928;47.562;7.508;2022-08-11T04:19:29;14.80;99.90
38118;DHT22;23928;47.562;7.508;2022-08-11T04:24:45;14.60;99.90
38118;DHT22;23928;47.562;7.508;2022-08-11T04:30:17;14.60;99.90
38118;DHT22;23928;47.562;7.508;2022-08-11T04:35:49;14.80;99.90
38118;DHT22;23928;47.562;7.508;2022-08-11T04:41:32;14.90;99.90
38118;DHT22;23928;47.562;7.508;2022-08-11T04:57:50;15.60;99.90
38118;DHT22;23928;47.562;7.508;2022-08-11T05:06:27;16.20;99.90
38118;DHT22;23928;47.562;7.508;2022-08-11T05:17:08;17.10;99.90
38118;DHT22;23928;47.562;7.508;2022-08-11T05:19:53;16.90;99.90
38118;DHT22;23928;47.562;7.508;2022-08-11T05:22:43;17.00;99.90
38118;DHT22;23928;47.562;7.508;2022-08-11T05:25:31;17.00;99.90
38118;DHT22;23928;47.562;7.508;2022-08-11T05:28:32;17.20;99.90
38118;DHT22;23928;47.562;7.508;2022-08-11T05:31:21;17.20;99.90
38118;DHT22;23928;47.562;7.508;2022-08-11T05:34:15;17.00;99.90
38118;DHT22;23928;47.562;7.508;2022-08-11T05:37:07;17.00;99.90
38118;DHT22;23928;47.562;7.508;2022-08-11T05:39:43;17.10;99.90
38118;DHT22;23928;47.562;7.508;2022-08-11T05:42:28;16.90;99.90
38118;DHT22;23928;47.562;7.508;2022-08-11T05:45:16;16.90;99.90
38118;DHT22;23928;47.562;7.508;2022-08-11T05:48:02;17.00;99.90
38118;DHT22;23928;47.562;7.508;2022-08-11T05:50:58;17.30;99.90
38118;DHT22;23928;47.562;7.508;2022-08-11T05:53:53;17.30;99.90
38118;DHT22;23928;47.562;7.508;2022-08-11T05:56:49;17.50;99.90
38118;DHT22;23928;47.562;7.508;2022-08-11T05:59:18;17.40;99.90
38118;DHT22;23928;47.562;7.508;2022-08-11T06:01:46;17.40;99.90
38118;DHT22;23928;47.562;7.508;2022-08-11T06:04:19;17.60;99.90
38118;DHT22;23928;47.562;7.508;2022-08-11T06:06:55;17.40;99.90
38118;DHT22;23928;47.562;7.508;2022-08-11T06:09:33;17.40;99.90
38118;DHT22;23928;47.562;7.508;2022-08-11T06:12:05;17.50;99.90
38118;DHT22;23928;47.562;7.508;2022-08-11T06:14:33;17.60;99.90
38118;DHT22;23928;47.562;7.508;2022-08-11T06:17:01;17.70;99.90
38118;DHT22;23928;47.562;7.508;2022-08-11T06:19:37;17.80;99.90
38118;DHT22;23928;47.562;7.508;2022-08-11T06:22:04;17.90;99.90
38118;DHT22;23928;47.562;7.508;2022-08-11T06:24:31;17.90;99.90
38118;DHT22;23928;47.562;7.508;2022-08-11T06:26:59;18.00;99.90
38118;DHT22;23928;47.562;7.508;2022-08-11T06:29:25;18.10;99.90
38118;DHT22;23928;47.562;7.508;2022-08-11T06:31:57;18.20;99.90
38118;DHT22;23928;47.562;7.508;2022-08-11T06:34:54;18.30;99.90
38118;DHT22;23928;47.562;7.508;2022-08-11T06:40:28;18.70;99.90
38118;DHT22;23928;47.562;7.508;2022-08-11T06:43:18;18.70;99.90
38118;DHT22;23928;47.562;7.508;2022-08-11T06:46:02;18.90;99.90
38118;DHT22;23928;47.562;7.508;2022-08-11T06:48:33;19.00;99.90
38118;DHT22;23928;47.562;7.508;2022-08-11T06:51:02;19.10;99.90
38118;DHT22;23928;47.562;7.508;2022-08-11T06:53:54;19.10;99.90
38118;DHT22;23928;47.562;7.508;2022-08-11T06:56:30;19.20;99.90
38118;DHT22;23928;47.562;7.508;2022-08-11T06:59:16;19.30;99.90
38118;DHT22;23928;47.562;7.508;2022-08-11T07:02:09;19.40;99.90
38118;DHT22;23928;47.562;7.508;2022-08-11T07:04:40;19.40;99.90
38118;DHT22;23928;47.562;7.508;2022-08-11T07:13:18;19.90;99.90
38118;DHT22;23928;47.562;7.508;2022-08-11T07:16:05;20.00;99.90
38118;DHT22;23928;47.562;7.508;2022-08-11T07:18:34;20.10;99.90
38118;DHT22;23928;47.562;7.508;2022-08-11T07:21:31;20.20;99.90
38118;DHT22;23928;47.562;7.508;2022-08-11T07:24:24;20.30;99.90
38118;DHT22;23928;47.562;7.508;2022-08-11T07:27:13;20.60;99.90
38118;DHT22;23928;47.562;7.508;2022-08-11T07:30:05;20.70;99.90
38118;DHT22;23928;47.562;7.508;2022-08-11T07:32:34;20.80;99.90
38118;DHT22;23928;47.562;7.508;2022-08-11T07:35:12;20.90;99.90
38118;DHT22;23928;47.562;7.508;2022-08-11T07:37:46;21.00;99.90
38118;DHT22;23928;47.562;7.508;2022-08-11T07:40:20;21.10;99.90
38118;DHT22;23928;47.562;7.508;2022-08-11T07:42:47;21.20;99.90
38118;DHT22;23928;47.562;7.508;2022-08-11T07:45:14;21.30;99.90
38118;DHT22;23928;47.562;7.508;2022-08-11T07:47:59;21.30;99.90
38118;DHT22;23928;47.562;7.508;2022-08-11T07:50:45;21.50;99.90
38118;DHT22;23928;47.562;7.508;2022-08-11T07:53:30;21.50;99.90
38118;DHT22;23928;47.562;7.508;2022-08-11T07:56:00;21.70;99.90
38118;DHT22;23928;47.562;7.508;2022-08-11T07:58:27;21.80;99.90
38118;DHT22;23928;47.562;7.508;2022-08-11T08:01:20;21.80;99.90
38118;DHT22;23928;47.562;7.508;2022-08-11T08:04:06;21.90;99.90
38118;DHT22;23928;47.562;7.508;2022-08-11T08:06:52;22.10;99.90
38118;DHT22;23928;47.562;7.508;2022-08-11T08:09:37;22.10;99.90
38118;DHT22;23928;47.562;7.508;2022-08-11T08:12:23;22.10;99.90
38118;DHT22;23928;47.562;7.508;2022-08-11T08:15:10;22.30;99.90
38118;DHT22;23928;47.562;7.508;2022-08-11T08:18:01;22.30;99.90
38118;DHT22;23928;47.562;7.508;2022-08-11T08:20:35;22.50;99.90
38118;DHT22;23928;47.562;7.508;2022-08-11T08:23:02;22.70;99.90
38118;DHT22;23928;47.562;7.508;2022-08-11T08:25:34;22.80;99.90
38118;DHT22;23928;47.562;7.508;2022-08-11T08:28:05;23.00;99.90
38118;DHT22;23928;47.562;7.508;2022-08-11T08:30:31;23.10;99.90
38118;DHT22;23928;47.562;7.508;2022-08-11T08:33:26;23.10;99.90
38118;DHT22;23928;47.562;7.508;2022-08-11T08:35:56;23.10;99.90
38118;DHT22;23928;47.562;7.508;2022-08-11T08:38:51;23.30;99.90
38118;DHT22;23928;47.562;7.508;2022-08-11T08:41:29;23.50;99.90
38118;DHT22;23928;47.562;7.508;2022-08-11T08:44:00;23.60;99.90
38118;DHT22;23928;47.562;7.508;2022-08-11T08:46:35;23.50;99.90
38118;DHT22;23928;47.562;7.508;2022-08-11T08:49:02;23.60;99.90
38118;DHT22;23928;47.562;7.508;2022-08-11T08:51:32;23.70;99.90
38118;DHT22;23928;47.562;7.508;2022-08-11T08:54:07;23.90;99.90
38118;DHT22;23928;47.562;7.508;2022-08-11T08:56:34;24.00;99.90
38118;DHT22;23928;47.562;7.508;2022-08-11T08:59:04;24.10;99.90
38118;DHT22;23928;47.562;7.508;2022-08-11T09:01:42;23.80;99.90
38118;DHT22;23928;47.562;7.508;2022-08-11T09:04:10;24.00;99.90
38118;DHT22;23928;47.562;7.508;2022-08-11T09:06:38;24.10;99.90
38118;DHT22;23928;47.562;7.508;2022-08-11T09:09:05;24.10;99.90
38118;DHT22;23928;47.562;7.508;2022-08-11T09:11:36;24.20;99.90
38118;DHT22;23928;47.562;7.508;2022-08-11T09:14:16;24.50;99.90
38118;DHT22;23928;47.562;7.508;2022-08-11T09:16:43;24.50;99.90
38118;DHT22;23928;47.562;7.508;2022-08-11T09:19:09;24.60;99.90
38118;DHT22;23928;47.562;7.508;2022-08-11T09:21:42;24.60;99.90
38118;DHT22;23928;47.562;7.508;2022-08-11T09:24:10;24.60;99.90
38118;DHT22;23928;47.562;7.508;2022-08-11T09:27:06;24.80;99.90
38118;DHT22;23928;47.562;7.508;2022-08-11T09:29:33;24.80;99.90
38118;DHT22;23928;47.562;7.508;2022-08-11T09:31:59;25.00;99.90
38118;DHT22;23928;47.562;7.508;2022-08-11T09:34:26;24.80;99.90
38118;DHT22;23928;47.562;7.508;2022-08-11T09:36:53;24.90;99.90
38118;DHT22;23928;47.562;7.508;2022-08-11T09:39:39;25.20;99.90
38118;DHT22;23928;47.562;7.508;2022-08-11T09:42:24;25.00;99.90
38118;DHT22;23928;47.562;7.508;2022-08-11T09:45:12;25.10;99.90
38118;DHT22;23928;47.562;7.508;2022-08-11T09:47:38;24.90;99.90
38118;DHT22;23928;47.562;7.508;2022-08-11T09:50:05;25.10;99.90
38118;DHT22;23928;47.562;7.508;2022-08-11T09:52:36;25.20;99.90
38118;DHT22;23928;47.562;7.508;2022-08-11T09:55:03;25.20;99.90
38118;DHT22;23928;47.562;7.508;2022-08-11T09:57:43;25.40;99.90
38118;DHT22;23928;47.562;7.508;2022-08-11T10:00:30;25.60;99.90
38118;DHT22;23928;47.562;7.508;2022-08-11T10:02:57;25.80;99.90
38118;DHT22;23928;47.562;7.508;2022-08-11T10:05:28;25.60;99.90
38118;DHT22;23928;47.562;7.508;2022-08-11T10:08:17;25.30;99.90
38118;DHT22;23928;47.562;7.508;2022-08-11T10:10:45;25.50;99.90
38118;DHT22;23928;47.562;7.508;2022-08-11T10:13:16;25.70;99.90
38118;DHT22;23928;47.562;7.508;2022-08-11T10:15:44;25.70;99.90
38118;DHT22;23928;47.562;7.508;2022-08-11T10:18:19;25.70;99.90
38118;DHT22;23928;47.562;7.508;2022-08-11T10:24:05;25.80;99.90
38118;DHT22;23928;47.562;7.508;2022-08-11T10:26:52;25.80;99.90
38118;DHT22;23928;47.562;7.508;2022-08-11T10:29:31;26.20;99.90
38118;DHT22;23928;47.562;7.508;2022-08-11T10:32:21;26.40;99.70
38118;DHT22;23928;47.562;7.508;2022-08-11T10:35:07;26.20;99.90
38118;DHT22;23928;47.562;7.508;2022-08-11T10:37:35;26.30;99.70
38118;DHT22;23928;47.562;7.508;2022-08-11T10:40:03;26.50;99.90
38118;DHT22;23928;47.562;7.508;2022-08-11T10:42:30;26.60;99.80
38118;DHT22;23928;47.562;7.508;2022-08-11T10:45:15;26.70;99.50
38118;DHT22;23928;47.562;7.508;2022-08-11T10:48:01;26.40;99.20
38118;DHT22;23928;47.562;7.508;2022-08-11T10:50:29;26.70;99.60
38118;DHT22;23928;47.562;7.508;2022-08-11T10:53:14;26.70;99.60
38118;DHT22;23928;47.562;7.508;2022-08-11T10:56:02;26.60;99.50
38118;DHT22;23928;47.562;7.508;2022-08-11T10:58:47;26.60;98.10
38118;DHT22;23928;47.562;7.508;2022-08-11T11:03:57;27.20;98.00
38118;DHT22;23928;47.562;7.508;2022-08-11T11:09:24;27.50;97.70
38118;DHT22;23928;47.562;7.508;2022-08-11T11:11:53;27.30;97.60
38118;DHT22;23928;47.562;7.508;2022-08-11T11:14:40;27.20;97.60
38118;DHT22;23928;47.562;7.508;2022-08-11T11:17:34;27.40;97.80
38118;DHT22;23928;47.562;7.508;2022-08-11T11:20:42;27.30;97.90
38118;DHT22;23928;47.562;7.508;2022-08-11T11:34:50;27.80;97.60
38118;DHT22;23928;47.562;7.508;2022-08-11T11:37:23;28.20;99.90
38118;DHT22;23928;47.562;7.508;2022-08-11T11:39:50;28.70;98.10
38118;DHT22;23928;47.562;7.508;2022-08-11T11:42:17;28.40;96.40
38118;DHT22;23928;47.562;7.508;2022-08-11T11:44:44;28.30;94.80
38118;DHT22;23928;47.562;7.508;2022-08-11T11:47:12;28.20;95.00
38118;DHT22;23928;47.562;7.508;2022-08-11T11:49:40;28.30;96.30
38118;DHT22;23928;47.562;7.508;2022-08-11T11:52:17;28.70;96.90
38118;DHT22;23928;47.562;7.508;2022-08-11T11:54:45;28.70;96.10
38118;DHT22;23928;47.562;7.508;2022-08-11T11:57:16;29.00;94.70
38118;DHT22;23928;47.562;7.508;2022-08-11T12:00:02;28.30;94.10
38118;DHT22;23928;47.562;7.508;2022-08-11T12:02:47;28.50;97.00
38118;DHT22;23928;47.562;7.508;2022-08-11T12:05:14;29.20;94.90
38118;DHT22;23928;47.562;7.508;2022-08-11T12:07:40;28.80;93.00
38118;DHT22;23928;47.562;7.508;2022-08-11T12:10:26;28.90;95.80
38118;DHT22;23928;47.562;7.508;2022-08-11T12:12:52;28.90;93.30
38118;DHT22;23928;47.562;7.508;2022-08-11T12:15:37;28.50;94.70
38118;DHT22;23928;47.562;7.508;2022-08-11T12:18:03;28.80;94.10
38118;DHT22;23928;47.562;7.508;2022-08-11T12:20:29;29.10;94.20
38118;DHT22;23928;47.562;7.508;2022-08-11T12:22:56;29.30;93.60
38118;DHT22;23928;47.562;7.508;2022-08-11T12:25:41;29.20;92.90
38118;DHT22;23928;47.562;7.508;2022-08-11T12:28:27;29.40;93.70
38118;DHT22;23928;47.562;7.508;2022-08-11T12:30:54;29.40;92.10
38118;DHT22;23928;47.562;7.508;2022-08-11T12:33:20;29.50;93.50
38118;DHT22;23928;47.562;7.508;2022-08-11T12:35:57;29.70;93.50
38118;DHT22;23928;47.562;7.508;2022-08-11T12:38:23;29.60;93.10
38118;DHT22;23928;47.562;7.508;2022-08-11T12:40:49;29.30;91.80
38118;DHT22;23928;47.562;7.508;2022-08-11T12:43:35;29.40;93.70
38118;DHT22;23928;47.562;7.508;2022-08-11T12:46:27;29.80;92.90
38118;DHT22;23928;47.562;7.508;2022-08-11T12:48:57;29.90;93.70
38118;DHT22;23928;47.562;7.508;2022-08-11T12:51:46;30.30;93.80
38118;DHT22;23928;47.562;7.508;2022-08-11T12:57:01;30.20;92.50
38118;DHT22;23928;47.562;7.508;2022-08-11T12:59:47;29.70;90.60
38118;DHT22;23928;47.562;7.508;2022-08-11T13:02:33;29.90;92.00
38118;DHT22;23928;47.562;7.508;2022-08-11T13:05:19;30.10;91.60
38118;DHT22;23928;47.562;7.508;2022-08-11T13:07:46;30.40;93.10
38118;DHT22;23928;47.562;7.508;2022-08-11T13:10:13;30.50;91.10
38118;DHT22;23928;47.562;7.508;2022-08-11T13:13:00;30.50;91.30
38118;DHT22;23928;47.562;7.508;2022-08-11T13:15:27;30.60;90.10
38118;DHT22;23928;47.562;7.508;2022-08-11T13:17:53;30.30;90.30
38118;DHT22;23928;47.562;7.508;2022-08-11T13:20:23;30.20;89.50
38118;DHT22;23928;47.562;7.508;2022-08-11T13:22:57;30.30;91.20
38118;DHT22;23928;47.562;7.508;2022-08-11T13:25:26;30.60;91.70
38118;DHT22;23928;47.562;7.508;2022-08-11T13:27:55;31.00;89.80
38118;DHT22;23928;47.562;7.508;2022-08-11T13:30:26;31.20;92.00
38118;DHT22;23928;47.562;7.508;2022-08-11T13:33:11;31.10;90.10
38118;DHT22;23928;47.562;7.508;2022-08-11T13:35:38;31.00;89.40
38118;DHT22;23928;47.562;7.508;2022-08-11T13:38:05;30.80;86.70
38118;DHT22;23928;47.562;7.508;2022-08-11T13:40:33;30.70;87.20
38118;DHT22;23928;47.562;7.508;2022-08-11T13:42:59;31.00;90.00
38118;DHT22;23928;47.562;7.508;2022-08-11T13:45:26;30.70;87.60
38118;DHT22;23928;47.562;7.508;2022-08-11T13:47:54;31.20;88.90
38118;DHT22;23928;47.562;7.508;2022-08-11T13:50:22;31.00;88.00
38118;DHT22;23928;47.562;7.508;2022-08-11T13:53:10;30.70;83.30
38118;DHT22;23928;47.562;7.508;2022-08-11T13:55:38;31.10;84.50
38118;DHT22;23928;47.562;7.508;2022-08-11T13:58:05;31.00;84.30
38118;DHT22;23928;47.562;7.508;2022-08-11T14:00:34;30.50;84.90
38118;DHT22;23928;47.562;7.508;2022-08-11T14:03:00;30.70;87.20
38118;DHT22;23928;47.562;7.508;2022-08-11T14:05:29;31.70;86.80
38118;DHT22;23928;47.562;7.508;2022-08-11T14:08:00;31.70;87.10
38118;DHT22;23928;47.562;7.508;2022-08-11T14:10:30;32.90;85.50
38118;DHT22;23928;47.562;7.508;2022-08-11T14:13:00;31.50;83.70
38118;DHT22;23928;47.562;7.508;2022-08-11T14:15:47;31.80;81.00
38118;DHT22;23928;47.562;7.508;2022-08-11T14:18:21;31.30;83.00
38118;DHT22;23928;47.562;7.508;2022-08-11T14:20:55;31.10;80.30
38118;DHT22;23928;47.562;7.508;2022-08-11T14:23:41;31.20;80.30
38118;DHT22;23928;47.562;7.508;2022-08-11T14:26:11;31.50;82.50
38118;DHT22;23928;47.562;7.508;2022-08-11T14:31:26;30.80;81.20
38118;DHT22;23928;47.562;7.508;2022-08-11T14:33:56;31.50;82.90
38118;DHT22;23928;47.562;7.508;2022-08-11T14:36:34;31.90;81.70
38118;DHT22;23928;47.562;7.508;2022-08-11T14:39:03;31.80;79.20
38118;DHT22;23928;47.562;7.508;2022-08-11T14:41:30;31.70;80.20
38118;DHT22;23928;47.562;7.508;2022-08-11T14:44:16;31.90;81.50
38118;DHT22;23928;47.562;7.508;2022-08-11T14:47:01;32.00;77.60
38118;DHT22;23928;47.562;7.508;2022-08-11T14:49:40;32.80;78.50
38118;DHT22;23928;47.562;7.508;2022-08-11T14:52:10;32.10;79.00
38118;DHT22;23928;47.562;7.508;2022-08-11T14:54:42;31.50;78.60
38118;DHT22;23928;47.562;7.508;2022-08-11T14:57:29;32.20;81.00
38118;DHT22;23928;47.562;7.508;2022-08-11T14:59:59;32.50;78.10
38118;DHT22;23928;47.562;7.508;2022-08-11T15:02:25;33.40;82.10
38118;DHT22;23928;47.562;7.508;2022-08-11T15:05:11;33.10;77.90
38118;DHT22;23928;47.562;7.508;2022-08-11T15:07:37;32.70;77.40
38118;DHT22;23928;47.562;7.508;2022-08-11T15:10:05;32.00;76.80
38118;DHT22;23928;47.562;7.508;2022-08-11T15:12:33;32.50;76.50
38118;DHT22;23928;47.562;7.508;2022-08-11T15:15:02;32.50;78.00
38118;DHT22;23928;47.562;7.508;2022-08-11T15:17:48;32.70;77.50
38118;DHT22;23928;47.562;7.508;2022-08-11T15:20:17;32.80;77.70
38118;DHT22;23928;47.562;7.508;2022-08-11T15:23:03;32.30;74.50
38118;DHT22;23928;47.562;7.508;2022-08-11T15:26:01;32.70;75.70
38118;DHT22;23928;47.562;7.508;2022-08-11T15:28:32;32.70;78.20
38118;DHT22;23928;47.562;7.508;2022-08-11T15:31:20;33.00;79.10
38118;DHT22;23928;47.562;7.508;2022-08-11T15:34:07;33.00;74.40
38118;DHT22;23928;47.562;7.508;2022-08-11T15:36:57;32.60;76.00
38118;DHT22;23928;47.562;7.508;2022-08-11T15:42:39;32.10;75.00
38118;DHT22;23928;47.562;7.508;2022-08-11T15:45:29;32.50;76.90
38118;DHT22;23928;47.562;7.508;2022-08-11T15:48:33;32.80;78.50
38118;DHT22;23928;47.562;7.508;2022-08-11T15:51:13;31.70;73.10
38118;DHT22;23928;47.562;7.508;2022-08-11T15:53:53;32.20;73.60
38118;DHT22;23928;47.562;7.508;2022-08-11T15:56:23;31.90;73.50
38118;DHT22;23928;47.562;7.508;2022-08-11T15:58:51;32.60;76.20
38118;DHT22;23928;47.562;7.508;2022-08-11T16:01:37;32.10;72.10
38118;DHT22;23928;47.562;7.508;2022-08-11T16:04:25;32.50;76.60
38118;DHT22;23928;47.562;7.508;2022-08-11T16:07:11;32.30;72.90
38118;DHT22;23928;47.562;7.508;2022-08-11T16:09:41;32.10;73.00
38118;DHT22;23928;47.562;7.508;2022-08-11T16:12:11;32.60;74.30
38118;DHT22;23928;47.562;7.508;2022-08-11T16:14:41;32.70;74.40
38118;DHT22;23928;47.562;7.508;2022-08-11T16:17:30;32.40;75.50
38118;DHT22;23928;47.562;7.508;2022-08-11T16:19:57;32.70;73.20
38118;DHT22;23928;47.562;7.508;2022-08-11T16:22:27;32.00;71.00
38118;DHT22;23928;47.562;7.508;2022-08-11T16:25:22;31.80;71.10
38118;DHT22;23928;47.562;7.508;2022-08-11T16:27:56;32.10;72.00
38118;DHT22;23928;47.562;7.508;2022-08-11T16:30:31;31.90;71.10
38118;DHT22;23928;47.562;7.508;2022-08-11T16:32:59;32.30;72.50
38118;DHT22;23928;47.562;7.508;2022-08-11T16:35:26;32.40;73.30
38118;DHT22;23928;47.562;7.508;2022-08-11T16:38:13;32.50;74.50
38118;DHT22;23928;47.562;7.508;2022-08-11T16:40:59;32.30;71.70
38118;DHT22;23928;47.562;7.508;2022-08-11T16:43:28;32.00;72.30
38118;DHT22;23928;47.562;7.508;2022-08-11T16:46:17;31.80;74.60
38118;DHT22;23928;47.562;7.508;2022-08-11T16:49:14;31.70;69.30
38118;DHT22;23928;47.562;7.508;2022-08-11T16:51:40;31.80;69.30
38118;DHT22;23928;47.562;7.508;2022-08-11T16:54:06;32.00;70.80
38118;DHT22;23928;47.562;7.508;2022-08-11T16:56:46;32.40;70.80
38118;DHT22;23928;47.562;7.508;2022-08-11T16:59:29;32.10;72.80
38118;DHT22;23928;47.562;7.508;2022-08-11T17:02:07;31.50;70.30
38118;DHT22;23928;47.562;7.508;2022-08-11T17:04:49;31.40;72.50
38118;DHT22;23928;47.562;7.508;2022-08-11T17:07:57;31.00;69.80
38118;DHT22;23928;47.562;7.508;2022-08-11T17:10:49;30.60;70.50
38118;DHT22;23928;47.562;7.508;2022-08-11T17:13:46;30.40;71.70
38118;DHT22;23928;47.562;7.508;2022-08-11T17:16:17;30.30;71.40
38118;DHT22;23928;47.562;7.508;2022-08-11T17:18:49;30.10;72.00
38118;DHT22;23928;47.562;7.508;2022-08-11T17:23:47;29.90;74.40
38118;DHT22;23928;47.562;7.508;2022-08-11T17:26:22;29.80;73.50
38118;DHT22;23928;47.562;7.508;2022-08-11T17:28:54;29.70;73.40
38118;DHT22;23928;47.562;7.508;2022-08-11T17:31:22;29.50;73.90
38118;DHT22;23928;47.562;7.508;2022-08-11T17:34:08;29.30;76.40
38118;DHT22;23928;47.562;7.508;2022-08-11T17:36:55;29.30;77.60
38118;DHT22;23928;47.562;7.508;2022-08-11T17:39:28;29.10;79.00
38118;DHT22;23928;47.562;7.508;2022-08-11T17:41:55;28.90;80.00
38118;DHT22;23928;47.562;7.508;2022-08-11T17:44:40;28.80;80.80
38118;DHT22;23928;47.562;7.508;2022-08-11T17:47:25;29.00;80.80
38118;DHT22;23928;47.562;7.508;2022-08-11T17:50:11;28.90;82.50
38118;DHT22;23928;47.562;7.508;2022-08-11T17:52:38;28.80;82.50
38118;DHT22;23928;47.562;7.508;2022-08-11T17:55:24;28.80;83.20
38118;DHT22;23928;47.562;7.508;2022-08-11T17:58:09;28.70;85.50
38118;DHT22;23928;47.562;7.508;2022-08-11T18:00:55;28.40;84.00
38118;DHT22;23928;47.562;7.508;2022-08-11T18:03:23;28.40;83.70
38118;DHT22;23928;47.562;7.508;2022-08-11T18:06:01;28.30;83.60
38118;DHT22;23928;47.562;7.508;2022-08-11T18:08:32;28.10;83.60
38118;DHT22;23928;47.562;7.508;2022-08-11T18:11:17;27.90;84.70
38118;DHT22;23928;47.562;7.508;2022-08-11T18:14:05;27.70;84.80
38118;DHT22;23928;47.562;7.508;2022-08-11T18:16:50;27.80;84.30
38118;DHT22;23928;47.562;7.508;2022-08-11T18:19:35;27.80;85.00
38118;DHT22;23928;47.562;7.508;2022-08-11T18:22:22;27.70;84.60
38118;DHT22;23928;47.562;7.508;2022-08-11T18:25:14;27.60;84.60
38118;DHT22;23928;47.562;7.508;2022-08-11T18:28:02;27.50;84.90
38118;DHT22;23928;47.562;7.508;2022-08-11T18:30:49;27.30;86.80
38118;DHT22;23928;47.562;7.508;2022-08-11T18:33:53;27.30;86.20
38118;DHT22;23928;47.562;7.508;2022-08-11T18:40:07;27.10;86.30
38118;DHT22;23928;47.562;7.508;2022-08-11T18:42:56;27.10;86.20
38118;DHT22;23928;47.562;7.508;2022-08-11T18:45:43;27.00;86.60
38118;DHT22;23928;47.562;7.508;2022-08-11T18:48:30;26.90;86.70
38118;DHT22;23928;47.562;7.508;2022-08-11T18:51:15;26.80;87.40
38118;DHT22;23928;47.562;7.508;2022-08-11T18:54:03;26.70;86.90
38118;DHT22;23928;47.562;7.508;2022-08-11T18:56:50;26.70;86.70
38118;DHT22;23928;47.562;7.508;2022-08-11T18:59:37;26.50;87.50
38118;DHT22;23928;47.562;7.508;2022-08-11T19:02:24;26.40;88.90
38118;DHT22;23928;47.562;7.508;2022-08-11T19:05:10;26.20;88.20
38118;DHT22;23928;47.562;7.508;2022-08-11T19:07:58;26.20;90.20
38118;DHT22;23928;47.562;7.508;2022-08-11T19:10:44;26.10;89.50
38118;DHT22;23928;47.562;7.508;2022-08-11T19:13:31;26.00;89.10
38118;DHT22;23928;47.562;7.508;2022-08-11T19:16:16;25.90;89.80
38118;DHT22;23928;47.562;7.508;2022-08-11T19:19:03;25.80;90.90
38118;DHT22;23928;47.562;7.508;2022-08-11T19:21:49;25.80;90.40
38118;DHT22;23928;47.562;7.508;2022-08-11T19:24:36;25.60;90.80
38118;DHT22;23928;47.562;7.508;2022-08-11T19:27:23;25.50;91.20
38118;DHT22;23928;47.562;7.508;2022-08-11T19:30:10;25.40;92.10
38118;DHT22;23928;47.562;7.508;2022-08-11T19:32:55;25.20;92.20
38118;DHT22;23928;47.562;7.508;2022-08-11T19:35:41;25.10;92.70
38118;DHT22;23928;47.562;7.508;2022-08-11T19:38:26;25.00;93.60
38118;DHT22;23928;47.562;7.508;2022-08-11T19:41:12;25.10;93.60
38118;DHT22;23928;47.562;7.508;2022-08-11T19:43:57;24.70;93.80